createdAt,value
2022-10-15T00:01:54.714Z,80.7
2022-10-15T00:03:52.378Z,65.2
2022-10-15T00:09:53.127Z,66
2022-10-15T00:11:50.759Z,67.2
2022-10-15T00:15:46.040Z,59.4
2022-10-15T00:17:43.676Z,63.2
2022-10-15T00:19:49.247Z,82.3
2022-10-15T00:21:46.851Z,67.5
2022-10-15T00:23:44.535Z,76.6
2022-10-15T00:25:42.148Z,60.3
2022-10-15T00:27:39.781Z,77.1
2022-10-15T00:29:37.429Z,67.5
2022-10-15T00:31:35.066Z,63.9
2022-10-15T00:33:40.628Z,66.4
2022-10-15T00:35:38.272Z,79.5
2022-10-15T00:37:35.909Z,60.1
2022-10-15T00:39:33.547Z,67.8
2022-10-15T00:41:31.184Z,69.2
2022-10-15T00:43:28.834Z,70.9
2022-10-15T00:45:26.463Z,64.9
2022-10-15T00:47:32.054Z,63
2022-10-15T00:49:29.670Z,66.4
2022-10-15T00:51:27.315Z,64
2022-10-15T00:52:30.087Z,73.2
2022-10-15T00:54:27.717Z,78.1
2022-10-15T00:56:25.352Z,74.7
2022-10-15T00:58:22.987Z,77.9
2022-10-15T01:00:28.567Z,62
2022-10-15T01:02:26.556Z,61.7
2022-10-15T01:04:23.831Z,86.7
2022-10-15T01:06:21.476Z,86.1
2022-10-15T01:08:19.117Z,66.8
2022-10-15T01:10:16.769Z,51.9
2022-10-15T01:12:14.409Z,64.9
2022-10-15T01:14:19.960Z,59.4
2022-10-15T01:16:17.589Z,66.4
2022-10-15T01:18:15.210Z,74.1
2022-10-15T01:20:13.006Z,84.2
2022-10-15T01:22:10.514Z,53.9
2022-10-15T01:24:08.147Z,67.6
2022-10-15T01:26:05.761Z,67.5
2022-10-15T01:28:11.303Z,65.3
2022-10-15T01:30:08.916Z,70.8
2022-10-15T01:32:06.536Z,58.9
2022-10-15T01:34:04.251Z,53
2022-10-15T01:36:04.106Z,64.1
2022-10-15T01:37:59.473Z,62.3
2022-10-15T01:39:57.103Z,55.5
2022-10-15T01:42:02.658Z,72.8
2022-10-15T01:44:00.309Z,66.8
2022-10-15T01:48:24.940Z,77.7
2022-10-15T01:50:22.571Z,73.5
2022-10-15T01:52:20.264Z,71.8
2022-10-15T01:54:25.768Z,67.4
2022-10-15T01:56:23.400Z,66.3
2022-10-15T01:58:21.019Z,66.5
2022-10-15T02:00:18.682Z,71.4
2022-10-15T02:02:16.322Z,71.1
2022-10-15T02:04:13.946Z,78.3
2022-10-15T02:06:11.610Z,73.6
2022-10-15T02:08:17.138Z,84.6
2022-10-15T02:12:12.410Z,71.9
2022-10-15T02:14:10.055Z,68.6
2022-10-15T02:16:07.719Z,100.9
2022-10-15T02:18:05.366Z,79.8
2022-10-15T02:20:03.023Z,69.5
2022-10-15T02:22:08.576Z,87.1
2022-10-15T02:24:06.214Z,72.6
2022-10-15T02:26:03.862Z,70
2022-10-15T02:28:01.484Z,76.1
2022-10-15T02:31:56.768Z,67.1
2022-10-15T02:33:54.374Z,88.7
2022-10-15T02:35:59.940Z,100.3
2022-10-15T02:37:57.574Z,93.9
2022-10-15T02:39:55.203Z,75.6
2022-10-15T02:40:57.998Z,84.9
2022-10-15T02:42:55.628Z,87.4
2022-10-15T02:44:53.270Z,86.5
2022-10-15T02:46:50.922Z,90.1
2022-10-15T02:48:56.434Z,106.3
2022-10-15T02:50:54.060Z,106.2
2022-10-15T02:52:51.674Z,94.2
2022-10-15T02:54:49.319Z,92.7
2022-10-15T02:56:46.955Z,112.1
2022-10-15T03:00:42.290Z,104.1
2022-10-15T03:06:43.077Z,111.2
2022-10-15T03:08:40.714Z,114.6
2022-10-15T03:10:38.348Z,109.1
2022-10-15T03:12:35.968Z,104.6
2022-10-15T03:14:33.619Z,102.1
2022-10-15T03:16:39.148Z,99.7
2022-10-15T03:18:39.771Z,99.3
2022-10-15T03:20:34.443Z,92.3
2022-10-15T03:22:32.057Z,90.2
2022-10-15T03:24:29.734Z,100.2
2022-10-15T03:26:27.338Z,92.3
2022-10-15T03:28:25.047Z,108
2022-10-15T03:30:30.562Z,131.5
2022-10-15T03:32:28.248Z,95.1
2022-10-15T03:34:25.855Z,111.5
2022-10-15T03:37:26.468Z,114
2022-10-15T03:39:23.914Z,104
2022-10-15T03:41:21.515Z,128.2
2022-10-15T03:43:27.090Z,138.2
2022-10-15T03:45:24.736Z,117.6
2022-10-15T03:47:22.366Z,124.1
2022-10-15T03:49:20.003Z,110.8
2022-10-15T03:51:21.994Z,109.1
2022-10-15T03:53:15.288Z,103.7
2022-10-15T03:55:12.930Z,102
2022-10-15T03:57:18.470Z,104.3
2022-10-15T03:59:16.112Z,122.3
2022-10-15T04:01:13.841Z,108.2
2022-10-15T04:03:11.379Z,113.3
2022-10-15T04:05:08.984Z,122.3
2022-10-15T04:07:06.650Z,120.5
2022-10-15T04:09:04.290Z,103.2
2022-10-15T04:11:09.826Z,115.7
2022-10-15T04:13:07.471Z,118.2
2022-10-15T04:15:05.090Z,123.9
2022-10-15T04:17:02.731Z,113.9
2022-10-15T04:22:55.638Z,122.8
2022-10-15T04:26:58.818Z,101.2
2022-10-15T04:28:56.541Z,99.1
2022-10-15T04:29:59.394Z,85.7
2022-10-15T04:31:56.894Z,103
2022-10-15T04:33:54.370Z,106.1
2022-10-15T04:35:52.021Z,111.4
2022-10-15T04:37:57.575Z,98.3
2022-10-15T04:39:56.782Z,90.6
2022-10-15T04:41:54.357Z,110.1
2022-10-15T04:43:51.996Z,123.6
2022-10-15T04:45:49.636Z,110.8
2022-10-15T04:47:47.277Z,81.9
2022-10-15T04:49:44.942Z,90.6
2022-10-15T04:51:50.473Z,118.5
2022-10-15T04:53:48.120Z,105.8
2022-10-15T04:55:45.755Z,98.4
2022-10-15T04:57:43.405Z,89.7
2022-10-15T04:59:41.028Z,89.5
2022-10-15T05:01:38.672Z,94.6
2022-10-15T05:03:38.572Z,121
2022-10-15T05:05:42.020Z,106.2
2022-10-15T05:07:39.475Z,104.5
2022-10-15T05:09:37.407Z,101.9
2022-10-15T05:11:34.733Z,92.4
2022-10-15T05:13:32.374Z,98.2
2022-10-15T05:15:30.036Z,94.1
2022-10-15T05:17:27.649Z,104.5
2022-10-15T05:19:33.184Z,105.3
2022-10-15T05:21:30.809Z,101.8
2022-10-15T05:23:28.459Z,98.2
2022-10-15T05:25:56.324Z,87.9
2022-10-15T05:27:54.009Z,122.2
2022-10-15T05:29:51.635Z,113.1
2022-10-15T05:31:57.193Z,103.9
2022-10-15T05:33:54.815Z,117.6
2022-10-15T05:35:52.468Z,100.1
2022-10-15T05:37:50.096Z,103.6
2022-10-15T05:39:47.736Z,102.7
2022-10-15T05:41:45.386Z,103.3
2022-10-15T05:43:43.024Z,135.2
2022-10-15T05:45:48.581Z,137.7
2022-10-15T05:47:46.212Z,144.5
2022-10-15T05:51:41.595Z,116.2
2022-10-15T05:53:39.140Z,133.7
2022-10-15T05:55:36.790Z,131.4
2022-10-15T05:57:34.431Z,113.1
2022-10-15T05:59:39.982Z,133
2022-10-15T06:01:37.682Z,117.6
2022-10-15T06:03:35.242Z,119.8
2022-10-15T06:05:32.900Z,133.9
2022-10-15T06:07:30.539Z,140.4
2022-10-15T06:09:28.159Z,162.2
2022-10-15T06:11:25.792Z,143.7
2022-10-15T06:15:29.003Z,132.9
2022-10-15T06:17:26.880Z,140.8
2022-10-15T06:18:29.388Z,148
2022-10-15T06:20:27.029Z,136.5
2022-10-15T06:22:24.707Z,129.1
2022-10-15T06:24:22.322Z,143.8
2022-10-15T06:26:27.870Z,138.9
2022-10-15T06:28:25.521Z,137.4
2022-10-15T06:32:20.769Z,135
2022-10-15T06:34:18.417Z,152.3
2022-10-15T06:36:16.047Z,155.1
2022-10-15T06:38:13.701Z,124.6
2022-10-15T06:40:19.255Z,136.1
2022-10-15T06:42:16.920Z,138.7
2022-10-15T06:44:14.532Z,121.9
2022-10-15T06:48:09.787Z,116.7
2022-10-15T06:50:07.423Z,122.8
2022-10-15T06:52:05.114Z,97.2
2022-10-15T06:54:10.673Z,104.2
2022-10-15T06:56:08.312Z,94.4
2022-10-15T06:58:05.956Z,78.7
2022-10-15T07:00:03.590Z,86.7
2022-10-15T07:02:01.215Z,82.6
2022-10-15T07:03:58.865Z,84
2022-10-15T07:05:56.494Z,85.6
2022-10-15T07:08:02.044Z,74.4
2022-10-15T07:09:59.667Z,73.2
2022-10-15T07:11:57.298Z,74.5
2022-10-15T07:14:57.699Z,73.4
2022-10-15T07:16:55.325Z,69
2022-10-15T07:18:52.968Z,65.2
2022-10-15T07:20:58.564Z,71.3
2022-10-15T07:22:56.168Z,66.4
2022-10-15T07:24:53.788Z,63.8
2022-10-15T07:26:51.394Z,77.7
2022-10-15T07:28:49.093Z,65.9
2022-10-15T07:30:46.682Z,78.7
2022-10-15T07:32:46.390Z,61.4
2022-10-15T07:34:49.848Z,60.8
2022-10-15T07:36:47.490Z,59.2
2022-10-15T07:38:45.127Z,79.9
2022-10-15T07:40:42.745Z,59.7
2022-10-15T07:42:40.403Z,65.9
2022-10-15T07:44:38.029Z,68.2
2022-10-15T07:46:35.665Z,50.4
2022-10-15T07:48:41.233Z,72.8
2022-10-15T07:50:40.438Z,55.1
2022-10-15T07:52:36.492Z,50
2022-10-15T07:54:34.145Z,67.9
2022-10-15T07:56:31.781Z,50.4
2022-10-15T07:58:29.418Z,47.2
2022-10-15T08:00:27.137Z,59.9
2022-10-15T08:02:32.624Z,53.4
2022-10-15T08:04:30.263Z,42.2
2022-10-15T08:06:27.911Z,46.4
2022-10-15T08:07:30.670Z,46.1
2022-10-15T08:09:28.343Z,35.6
2022-10-15T08:11:25.977Z,47.1
2022-10-15T08:13:23.616Z,40.1
2022-10-15T08:15:29.184Z,33.1
2022-10-15T08:17:26.825Z,36.4
2022-10-15T08:19:24.442Z,34.2
2022-10-15T08:21:22.067Z,43
2022-10-15T08:25:17.362Z,36.9
2022-10-15T08:27:14.990Z,40.9
2022-10-15T08:29:20.567Z,42.3
2022-10-15T08:31:18.182Z,37.1
2022-10-15T08:33:16.137Z,41.2
2022-10-15T08:35:13.633Z,33.3
2022-10-15T08:37:11.114Z,37.4
2022-10-15T08:41:06.371Z,31.7
2022-10-15T08:43:11.917Z,45.8
2022-10-15T08:45:09.847Z,36.9
2022-10-15T08:47:07.507Z,41.2
2022-10-15T08:49:05.108Z,36.1
2022-10-15T08:51:02.740Z,41
2022-10-15T08:53:00.364Z,54.8
2022-10-15T08:54:57.992Z,41.5
2022-10-15T08:57:03.538Z,53.4
2022-10-15T08:59:01.162Z,36.7
2022-10-15T09:00:58.906Z,35.3
2022-10-15T09:03:21.594Z,-1
2022-10-15T09:05:24.152Z,37.1
2022-10-15T09:07:22.212Z,37.5
2022-10-15T09:09:27.338Z,32.3
2022-10-15T09:11:24.952Z,36.4
2022-10-15T09:15:22.699Z,37.5
2022-10-15T09:17:17.830Z,42
2022-10-15T09:19:15.447Z,38.7
2022-10-15T09:21:13.236Z,35.4
2022-10-15T09:23:18.652Z,41.4
2022-10-15T09:25:16.273Z,32.4
2022-10-15T09:27:13.897Z,41.3
2022-10-15T09:29:11.544Z,29.6
2022-10-15T09:31:09.152Z,29.5
2022-10-15T09:33:06.771Z,25.5
2022-10-15T09:37:09.975Z,29.9
2022-10-15T09:39:07.589Z,32.7
2022-10-15T09:41:05.271Z,29.1
2022-10-15T09:43:02.821Z,32.1
2022-10-15T09:45:00.464Z,30.3
2022-10-15T09:46:58.079Z,33.9
2022-10-15T09:51:01.248Z,26.1
2022-10-15T09:52:58.861Z,35.5
2022-10-15T09:54:56.490Z,68.7
2022-10-15T09:55:59.242Z,86.4
2022-10-15T09:57:56.857Z,27.1
2022-10-15T09:59:54.487Z,26.3
2022-10-15T10:01:52.308Z,25.4
2022-10-15T10:03:57.631Z,19.7
2022-10-15T10:05:55.268Z,25.6
2022-10-15T10:07:52.868Z,19.5
2022-10-15T10:09:50.489Z,23.4
2022-10-15T10:11:48.115Z,17.4
2022-10-15T10:19:46.471Z,25.6
2022-10-15T10:21:45.652Z,33.6
2022-10-15T10:23:43.227Z,15.5
2022-10-15T10:25:40.872Z,21.1
2022-10-15T10:31:41.611Z,25.1
2022-10-15T10:33:39.229Z,35.5
2022-10-15T10:35:36.849Z,30.1
2022-10-15T10:37:34.459Z,31.9
2022-10-15T10:39:32.068Z,21.9
2022-10-15T10:41:29.656Z,16.2
2022-10-15T10:43:27.253Z,22.3
2022-10-15T10:45:32.809Z,25.3
2022-10-15T10:47:30.407Z,25.7
2022-10-15T10:49:28.034Z,23
2022-10-15T10:50:30.802Z,26.1
2022-10-15T10:52:28.408Z,19.7
2022-10-15T10:54:26.027Z,30.9
2022-10-15T10:56:23.657Z,28
2022-10-15T10:58:29.222Z,30.9
2022-10-15T11:00:26.847Z,30.5
2022-10-15T11:06:19.676Z,30.4
2022-10-15T11:08:17.288Z,24.8
2022-10-15T11:10:14.932Z,23
2022-10-15T11:12:20.478Z,20.1
2022-10-15T11:14:18.085Z,20.4
2022-10-15T11:16:15.702Z,23.1
2022-10-15T11:18:13.305Z,17.9
2022-10-15T11:20:34.468Z,26.5
2022-10-15T11:22:08.586Z,25
2022-10-15T11:24:06.207Z,18.9
2022-10-15T11:26:11.760Z,23
2022-10-15T11:28:09.361Z,12.9
2022-10-15T11:30:07.033Z,18.4
2022-10-15T11:34:02.196Z,16.6
2022-10-15T11:35:59.843Z,20.3
2022-10-15T11:37:57.462Z,23.8
2022-10-15T11:43:58.274Z,14.9
2022-10-15T11:46:58.651Z,18.1
2022-10-15T11:48:56.259Z,17.8
2022-10-15T11:50:53.896Z,13.6
2022-10-15T11:52:59.436Z,16.1
2022-10-15T11:54:57.057Z,16.3
2022-10-15T11:56:54.698Z,15
2022-10-15T11:58:52.384Z,13.5
2022-10-15T12:00:49.949Z,15.1
2022-10-15T12:02:47.569Z,14.4
2022-10-15T12:06:50.744Z,13.9
2022-10-15T12:08:48.342Z,16.7
2022-10-15T12:10:45.969Z,11.5
2022-10-15T12:12:43.585Z,13.7
2022-10-15T12:16:38.822Z,10.7
2022-10-15T12:18:36.431Z,11.7
2022-10-15T12:22:39.588Z,12.5
2022-10-15T12:24:37.221Z,14.4
2022-10-15T12:30:30.114Z,10.3
2022-10-15T12:32:27.729Z,8.3
2022-10-15T12:36:30.897Z,11.4
2022-10-15T12:38:28.491Z,11.3
2022-10-15T12:40:51.744Z,13.5
2022-10-15T12:42:49.357Z,10.2
2022-10-15T12:44:46.991Z,8
2022-10-15T12:46:52.537Z,6.9
2022-10-15T12:48:50.135Z,7.8
2022-10-15T12:50:47.734Z,5.8
2022-10-15T12:52:45.364Z,8.2
2022-10-15T12:54:42.964Z,8
2022-10-15T12:56:40.580Z,7.2
2022-10-15T12:58:38.222Z,5.1
2022-10-15T13:04:39.015Z,21.4
2022-10-15T13:06:36.646Z,10.1
2022-10-15T13:08:34.245Z,9.5
2022-10-15T13:10:31.868Z,8.4
2022-10-15T13:12:29.470Z,10.8
2022-10-15T13:14:35.058Z,8.8
2022-10-15T13:16:32.630Z,8.6
2022-10-15T13:18:30.273Z,11.5
2022-10-15T13:20:27.873Z,8.5
2022-10-15T13:22:25.760Z,68.9
2022-10-15T13:24:23.164Z,22.9
2022-10-15T13:26:20.794Z,15.5
2022-10-15T13:28:26.351Z,12.9
2022-10-15T13:30:24.000Z,9
2022-10-15T13:32:21.917Z,21.2
2022-10-15T13:35:21.979Z,13.4
2022-10-15T13:37:19.765Z,19.1
2022-10-15T13:39:17.239Z,11.5
2022-10-15T13:41:22.765Z,14.9
2022-10-15T13:43:20.357Z,11.6
2022-10-15T13:45:17.948Z,23.9
2022-10-15T13:47:15.586Z,11.5
2022-10-15T13:49:13.177Z,10.6
2022-10-15T13:55:13.968Z,16.7
2022-10-15T13:57:11.605Z,14.7
2022-10-15T14:01:06.869Z,11.4
2022-10-15T14:03:04.406Z,33.2
2022-10-15T14:05:02.054Z,80.7
2022-10-15T14:09:05.209Z,11.1
2022-10-15T14:11:02.845Z,14.8
2022-10-15T14:13:00.421Z,16.7
2022-10-15T14:14:58.025Z,20.3
2022-10-15T14:16:55.383Z,9.4
2022-10-15T14:18:53.018Z,15.5
2022-10-15T14:20:50.633Z,11.6
2022-10-15T14:22:56.172Z,26
2022-10-15T14:24:53.775Z,105.6
2022-10-15T14:26:51.419Z,12.8
2022-10-15T14:27:54.177Z,56.8
2022-10-15T14:29:51.753Z,40.6
2022-10-15T14:31:49.414Z,42.1
2022-10-15T14:33:47.144Z,114.7
2022-10-15T14:35:52.576Z,207.6
2022-10-15T14:37:50.162Z,121.5
2022-10-15T14:39:47.764Z,26
2022-10-15T14:41:45.377Z,24.7
2022-10-15T14:43:42.967Z,14.1
2022-10-15T14:47:38.180Z,12.2
2022-10-15T14:49:43.729Z,56.7
2022-10-15T14:57:35.026Z,95.8
2022-10-15T14:59:32.725Z,27.9
2022-10-15T15:01:30.204Z,16.6
2022-10-15T15:03:35.751Z,12.6
2022-10-15T15:05:33.349Z,13.3
2022-10-15T15:07:30.944Z,25.9
2022-10-15T15:09:28.539Z,12.9
2022-10-15T15:11:26.171Z,97.3
2022-10-15T15:13:23.796Z,261.8
2022-10-15T15:15:21.393Z,27.1
2022-10-15T15:17:26.962Z,10.3
2022-10-15T15:19:24.562Z,17
2022-10-15T15:21:22.169Z,12.5
2022-10-15T15:22:25.320Z,11.1
2022-10-15T15:24:22.532Z,12.5
2022-10-15T15:26:20.119Z,19.2
2022-10-15T15:28:17.806Z,58.5
2022-10-15T15:30:23.281Z,21.9
2022-10-15T15:34:18.516Z,10.3
2022-10-15T15:36:19.103Z,128.9
2022-10-15T15:38:13.728Z,79.6
2022-10-15T15:40:11.335Z,25.4
2022-10-15T15:42:08.949Z,21.9
2022-10-15T15:44:14.501Z,37.5
2022-10-15T15:46:12.097Z,28.2
2022-10-15T15:50:07.294Z,11.7
2022-10-15T15:52:04.881Z,81.9
2022-10-15T15:54:02.506Z,653.1
2022-10-15T15:58:05.657Z,20.3
2022-10-15T16:00:03.389Z,13.8
2022-10-15T16:02:00.976Z,21.7
2022-10-15T16:04:00.046Z,28.9
2022-10-15T16:05:57.620Z,14.8
2022-10-15T16:07:55.231Z,26.7
2022-10-15T16:09:52.824Z,9.1
2022-10-15T16:11:58.351Z,8.9
2022-10-15T16:13:55.978Z,4.6
2022-10-15T16:15:53.576Z,6.3
2022-10-15T16:20:18.187Z,27.9
2022-10-15T16:22:15.768Z,11.7
2022-10-15T16:24:21.315Z,36.5
2022-10-15T16:26:18.936Z,14.9
2022-10-15T16:28:16.537Z,22.9
2022-10-15T16:30:14.153Z,45.2
2022-10-15T16:34:09.374Z,27.1
2022-10-15T16:36:07.014Z,72
2022-10-15T16:38:12.570Z,9.2
2022-10-15T16:40:10.159Z,15.3
2022-10-15T16:42:07.867Z,9.7
2022-10-15T16:44:05.388Z,11.6
2022-10-15T16:49:58.236Z,14
2022-10-15T16:52:03.792Z,6.4
2022-10-15T16:54:01.407Z,7.7
2022-10-15T16:55:59.002Z,6.5
2022-10-15T16:57:56.618Z,39.6
2022-10-15T16:59:54.221Z,40.1
2022-10-15T17:01:51.897Z,26.9
2022-10-15T17:05:55.032Z,18.2
2022-10-15T17:07:52.639Z,29.5
2022-10-15T17:10:53.014Z,127.3
2022-10-15T17:14:48.255Z,16.3
2022-10-15T17:16:45.891Z,24
2022-10-15T17:22:46.687Z,11.2
2022-10-15T17:24:44.349Z,5.2
2022-10-15T17:30:37.199Z,13.4
2022-10-15T17:32:42.774Z,7.9
2022-10-15T17:36:38.035Z,7.8
2022-10-15T17:38:35.642Z,12.9
2022-10-15T17:40:33.346Z,11.1
2022-10-15T17:42:30.899Z,6.8
2022-10-15T17:44:28.523Z,27
2022-10-15T17:46:34.200Z,17.9
2022-10-15T17:48:31.695Z,19.8
2022-10-15T17:50:29.310Z,17.9
2022-10-15T17:52:26.960Z,8.7
2022-10-15T17:54:24.587Z,12.3
2022-10-15T17:56:22.202Z,8.6
2022-10-15T17:58:19.836Z,74.8
2022-10-15T18:00:25.401Z,21.3
2022-10-15T18:02:23.088Z,36.4
2022-10-15T18:04:20.673Z,14.9
2022-10-15T18:05:23.432Z,14.2
2022-10-15T18:07:21.111Z,10.2
2022-10-15T18:11:16.308Z,11.6
2022-10-15T18:15:19.481Z,14.3
2022-10-15T18:17:17.084Z,8.5
2022-10-15T18:21:12.366Z,16.8
2022-10-15T18:23:10.021Z,20.5
2022-10-15T18:25:07.646Z,18
2022-10-15T18:29:10.829Z,6
2022-10-15T18:31:08.485Z,9.8
2022-10-15T18:33:06.066Z,11.8
2022-10-15T18:35:03.692Z,12.3
2022-10-15T18:37:01.307Z,12.3
2022-10-15T18:38:58.949Z,8
2022-10-15T18:41:04.500Z,15.7
2022-10-15T18:43:02.145Z,38.5
2022-10-15T18:44:59.736Z,25.2
2022-10-15T18:46:57.386Z,11.3
2022-10-15T18:48:55.013Z,11.7
2022-10-15T18:50:52.663Z,14.9
2022-10-15T18:52:50.292Z,10.1
2022-10-15T18:54:55.801Z,11.8
2022-10-15T18:59:53.880Z,14.8
2022-10-15T19:01:51.523Z,9.5
2022-10-15T19:03:49.135Z,10.1
2022-10-15T19:05:46.761Z,11.9
2022-10-15T19:07:52.289Z,21.7
2022-10-15T19:09:49.902Z,12.4
2022-10-15T19:11:47.536Z,12.7
2022-10-15T19:13:45.171Z,12
2022-10-15T19:15:42.811Z,19.7
2022-10-15T19:19:38.050Z,18.7
2022-10-15T19:21:43.575Z,24.3
2022-10-15T19:25:38.853Z,11.3
2022-10-15T19:27:36.476Z,11.8
2022-10-15T19:29:35.267Z,37.9
2022-10-15T19:33:29.371Z,34.4
2022-10-15T19:35:34.919Z,14.3
2022-10-15T19:37:32.562Z,19.1
2022-10-15T19:39:30.217Z,22.2
2022-10-15T19:43:25.456Z,20
2022-10-15T19:45:23.092Z,9.3
2022-10-15T19:47:20.703Z,20.1
2022-10-15T19:49:26.234Z,16
2022-10-15T19:51:24.044Z,18.2
2022-10-15T19:53:21.514Z,19.1
2022-10-15T19:55:44.217Z,21.8
2022-10-15T19:57:41.826Z,16.8
2022-10-15T19:59:39.467Z,12.8
2022-10-15T20:01:45.204Z,10.3
2022-10-15T20:03:42.618Z,6.3
2022-10-15T20:05:40.234Z,15.6
2022-10-15T20:07:37.887Z,5
2022-10-15T20:09:35.519Z,9.1
2022-10-15T20:11:33.142Z,6.4
2022-10-15T20:13:30.792Z,3.7
2022-10-15T20:15:36.318Z,13.8
2022-10-15T20:17:34.507Z,8.3
2022-10-15T20:19:32.130Z,6.8
2022-10-15T20:23:27.413Z,2.7
2022-10-15T20:25:25.036Z,4.6
2022-10-15T20:27:22.820Z,8
2022-10-15T20:29:28.186Z,4.1
2022-10-15T20:31:25.855Z,10.3
2022-10-15T20:33:23.509Z,10.5
2022-10-15T20:35:21.144Z,16
2022-10-15T20:37:18.750Z,7.8
2022-10-15T20:39:16.395Z,4
2022-10-15T20:41:14.018Z,5.9
2022-10-15T20:43:19.555Z,7.2
2022-10-15T20:45:17.199Z,14.4
2022-10-15T20:47:14.853Z,8.3
2022-10-15T20:48:17.640Z,5.9
2022-10-15T20:50:15.260Z,12.7
2022-10-15T21:00:11.346Z,5.4
2022-10-15T21:02:08.970Z,9.2
2022-10-15T21:04:06.598Z,7.8
2022-10-15T21:06:04.234Z,15.6
2022-10-15T21:08:01.834Z,10.2
2022-10-15T21:10:07.401Z,10
2022-10-15T21:12:05.018Z,5.7
2022-10-15T21:14:02.640Z,3.7
2022-10-15T21:16:00.271Z,4.9
2022-10-15T21:17:57.913Z,7.3
2022-10-15T21:19:55.539Z,4.8
2022-10-15T21:21:53.188Z,9.9
2022-10-15T21:23:58.710Z,18.1
2022-10-15T21:25:56.336Z,5.8
2022-10-15T21:29:51.577Z,14
2022-10-15T21:31:49.223Z,11.1
2022-10-15T21:33:46.844Z,6
2022-10-15T21:35:44.468Z,20.2
2022-10-15T21:37:50.026Z,5.5
2022-10-15T21:39:47.664Z,6.9
2022-10-15T21:41:45.306Z,14.6
2022-10-15T21:42:48.055Z,17.6
2022-10-15T21:44:47.269Z,7.5
2022-10-15T21:46:44.842Z,6.9
2022-10-15T21:48:42.493Z,13.1
2022-10-15T21:50:48.051Z,7.5
2022-10-15T21:52:45.670Z,5
2022-10-15T21:54:43.301Z,5.8
2022-10-15T21:58:38.579Z,25.3
2022-10-15T22:00:36.195Z,18.4
2022-10-15T22:04:39.397Z,5.7
2022-10-15T22:06:37.017Z,5
2022-10-15T22:08:34.654Z,15.4
2022-10-15T22:10:32.290Z,4.9
2022-10-15T22:12:29.911Z,3
2022-10-15T22:14:27.663Z,9.5
2022-10-15T22:16:25.163Z,9.6
2022-10-15T22:18:30.736Z,13.7
2022-10-15T22:20:28.336Z,4
2022-10-15T22:22:26.307Z,4.7
2022-10-15T22:24:23.603Z,5.6
2022-10-15T22:26:21.219Z,4.3
2022-10-15T22:28:18.902Z,3.1
2022-10-15T22:30:16.477Z,14.5
2022-10-15T22:34:19.632Z,10.4
2022-10-15T22:36:17.239Z,12
2022-10-15T22:37:20.012Z,6.3
2022-10-15T22:39:17.631Z,12.8
2022-10-15T22:41:15.268Z,3.3
2022-10-15T22:43:12.914Z,5.4
2022-10-15T22:45:18.457Z,8
2022-10-15T22:47:16.084Z,13
2022-10-15T22:49:13.700Z,19.2
2022-10-15T22:53:08.958Z,5.4
2022-10-15T22:55:06.582Z,4.6
2022-10-15T22:57:04.226Z,3.1
2022-10-15T23:01:07.429Z,2.7
2022-10-15T23:05:02.648Z,9.5
2022-10-15T23:07:00.264Z,5.8
2022-10-15T23:08:57.885Z,2.7
2022-10-15T23:10:55.517Z,5.1
2022-10-15T23:13:01.055Z,14.4
2022-10-15T23:14:58.662Z,4.7
2022-10-15T23:16:56.278Z,3.5
2022-10-15T23:18:53.906Z,3.9
2022-10-15T23:20:51.525Z,5.6
2022-10-15T23:22:49.143Z,11.1
2022-10-15T23:24:46.769Z,6.8
2022-10-15T23:28:50.041Z,2.5
2022-10-15T23:30:47.578Z,11.7
2022-10-15T23:33:14.521Z,7
2022-10-15T23:35:12.164Z,7
2022-10-15T23:37:09.769Z,2.2
2022-10-15T23:39:15.307Z,9.8
2022-10-15T23:41:12.941Z,2.4
2022-10-15T23:43:10.558Z,4.3
2022-10-15T23:45:08.181Z,1.6
2022-10-15T23:47:05.823Z,20.5
2022-10-15T23:53:06.607Z,4.5
2022-10-15T23:57:01.850Z,10.6
2022-10-15T23:58:59.509Z,8.2
